Madison Heights, VA

11:19 AM EST on December 22, 2014 (GMT -0500)
Roanoke Regional-Woodrum | Change Station
CLOSE
Current Station
Airport
Location: Roanoke,
Elevation: 1175 ft
Nearby Weather Stations
Active Advisory: Freezing Rain Advisory

Elev 1175 ft 37.32 °N, 79.97 °W | Updated 9 minutes ago

Ice Pellets
Ice Pellets
35 °F
Feels Like 35 °F
N
0
Wind Variable Wind from North

Today
High -- | Low -- °F
--% Chance of Precip.
Yesterday
High -- | Low -- °F
Precip. -- in
7:27 AM 5:02 PM
New Moon, 1% visible
Pressure 30.19 in
Visibility 1.5 miles
Clouds Overcast 600 ft
Dew Point 33 °F
Humidity 92%
Rainfall 0.05 in
Snow Depth Not available.
UV 1 out of 12
Pollen .10 out of 12
Air Quality Not available.
Flu Activity Not available.
SPECI KROA 221610Z 00000KT 1 1/2SM -RA BR OVC006 02/01 A3019 RMK AO2 DZE10RAB10 P0001 T00170006

More Conditions Fewer Conditions

Pressure 30.19 in
Visibility 1.5 miles
Clouds Overcast 600 ft
Dew Point 33 °F
Humidity 92%
Rainfall 0.05 in
Snow Depth Not available.
UV 1 out of 12
Pollen .10 out of 12
Air Quality Not available.
Flu Activity Not available.
SPECI KROA 221610Z 00000KT 1 1/2SM -RA BR OVC006 02/01 A3019 RMK AO2 DZE10RAB10 P0001 T00170006

More Conditions Fewer Conditions

10-Day Weather Forecast

Almanac

Astronomy

Dec. 22, 2014 Rise Set
Actual Time
Civil Twilight
Nautical Twilight
Astronomical Twilight
Moon
Length of Visible Light
Length of Day
Tomorrow will be .
, % of the Moon is Illuminated

Today's Extremes

State Highs State Lows

Community

WunderPhotos

Upload Photos

1,779,630 photos uploaded!

WunderBlogs® & News

Nearby

Air Quality

  Air Quality AQ Index Pollutant
Not available.

Snow Depth

Station Depth Elevation

Earthquake Activity

City Distance Mag. Time & Date
Minimum magnitude displayed is 2.5.

Coastal Water Temperatures

Place Temperature

Nearby Weather Stations